Time;durP1;ratioP1;P1;durP2;ratioP2;P2;SDS_P1;SDS_P2;PMS_P1;PMS_P2;Temp;Humidity;BMP_temperature;BMP_pressure;BME280_temperature;BME280_humidity;BME280_pressure;Samples;Min_cycle;Max_cycle;Signal;HPM_P1;HPM_P2
2023/01/09 00:01:57;;;;;;;4.95;2.00;;;7.80;99.90;;;;;;5097687;28;20052;-61
2023/01/09 00:04:22;;;;;;;5.38;2.20;;;7.70;99.90;;;;;;5087891;28;20032;-60
2023/01/09 00:06:52;;;;;;;7.07;2.00;;;7.80;99.90;;;;;;5099551;28;20138;-62
2023/01/09 00:09:20;;;;;;;4.07;2.15;;;7.70;99.90;;;;;;5086851;28;20032;-61
2023/01/09 00:11:46;;;;;;;5.47;1.70;;;7.70;99.90;;;;;;5088026;28;20033;-54
2023/01/09 00:14:13;;;;;;;3.92;1.67;;;7.70;99.90;;;;;;5095344;28;20147;-61
2023/01/09 00:16:38;;;;;;;3.47;1.70;;;7.60;99.90;;;;;;5084929;28;20075;-60
2023/01/09 00:19:04;;;;;;;5.78;2.28;;;7.60;99.90;;;;;;5088171;28;20427;-59
2023/01/09 00:21:29;;;;;;;4.25;1.50;;;7.60;99.90;;;;;;5098540;28;20036;-61
2023/01/09 00:23:55;;;;;;;3.50;1.50;;;7.50;99.90;;;;;;5089517;28;20027;-60
2023/01/09 00:26:21;;;;;;;3.50;1.40;;;7.60;99.90;;;;;;5088119;28;20427;-58
2023/01/09 00:28:48;;;;;;;2.75;1.33;;;7.50;99.90;;;;;;5093798;28;20058;-54
2023/01/09 00:31:15;;;;;;;4.28;1.60;;;7.60;99.90;;;;;;5100611;28;20047;-60
2023/01/09 00:34:09;;;;;;;4.82;1.77;;;7.50;99.90;;;;;;5090846;28;20054;-60
2023/01/09 00:36:35;;;;;;;3.45;1.58;;;7.50;99.90;;;;;;5081597;28;20581;-61
2023/01/09 00:39:00;;;;;;;3.92;1.52;;;7.50;99.90;;;;;;5096704;28;20479;-58
2023/01/09 00:41:39;;;;;;;2.75;1.25;;;7.50;99.90;;;;;;5087744;28;20134;-59
2023/01/09 00:44:40;;;;;;;2.00;1.40;;;7.50;99.90;;;;;;5087762;28;20043;-59
2023/01/09 00:47:12;;;;;;;3.17;1.40;;;7.50;99.90;;;;;;5085422;28;20037;-58
2023/01/09 00:49:38;;;;;;;2.20;1.40;;;7.40;99.90;;;;;;5084917;28;20035;-57
2023/01/09 00:52:07;;;;;;;4.53;1.45;;;7.40;99.90;;;;;;5093552;28;20028;-58
2023/01/09 00:54:33;;;;;;;3.13;1.50;;;7.40;99.90;;;;;;5098412;28;20395;-58
2023/01/09 00:56:59;;;;;;;4.03;1.30;;;7.40;99.90;;;;;;5102137;28;20047;-60
2023/01/09 00:59:26;;;;;;;3.65;1.40;;;7.30;99.90;;;;;;5077899;28;20039;-59
2023/01/09 01:01:52;;;;;;;3.28;1.30;;;7.30;99.90;;;;;;5094227;28;20098;-59
2023/01/09 01:09:46;;;;;;;4.28;1.42;;;7.30;99.90;;;;;;5085785;28;20105;-58
2023/01/09 01:12:12;;;;;;;2.53;1.40;;;7.30;99.90;;;;;;5101732;28;20031;-59
2023/01/09 01:14:38;;;;;;;3.83;1.45;;;7.30;99.90;;;;;;5090856;28;20506;-60
2023/01/09 01:17:04;;;;;;;4.13;1.30;;;7.30;99.90;;;;;;5077634;28;20058;-55
2023/01/09 01:19:30;;;;;;;5.35;1.50;;;7.20;99.90;;;;;;5073031;28;20044;-59
2023/01/09 01:21:56;;;;;;;3.78;1.52;;;7.30;99.90;;;;;;5080909;28;20101;-59
2023/01/09 01:24:21;;;;;;;4.32;1.70;;;7.30;99.90;;;;;;5107593;28;20032;-59
2023/01/09 01:26:47;;;;;;;3.70;1.67;;;7.30;99.90;;;;;;5102475;28;20082;-59
2023/01/09 01:29:13;;;;;;;3.10;1.58;;;7.20;99.90;;;;;;5093144;28;20105;-61
2023/01/09 01:31:39;;;;;;;3.92;1.60;;;7.30;99.90;;;;;;5102394;28;20138;-57
2023/01/09 01:34:04;;;;;;;3.67;1.60;;;7.20;99.90;;;;;;5105074;28;20135;-55
2023/01/09 01:36:30;;;;;;;2.35;1.33;;;7.20;99.90;;;;;;5102046;28;20052;-58
2023/01/09 01:38:55;;;;;;;4.78;1.85;;;7.20;99.90;;;;;;5096025;28;20083;-59
2023/01/09 01:41:30;;;;;;;6.07;2.03;;;7.20;99.90;;;;;;5097698;28;20091;-59
2023/01/09 01:44:02;;;;;;;4.32;1.80;;;7.20;99.90;;;;;;5091039;28;20024;-59
2023/01/09 01:46:32;;;;;;;4.10;2.05;;;7.10;99.90;;;;;;5098375;28;20127;-59
2023/01/09 01:49:06;;;;;;;4.57;1.90;;;7.00;99.90;;;;;;5093834;28;20028;-59
2023/01/09 01:51:36;;;;;;;5.22;1.77;;;7.00;99.90;;;;;;5095784;28;20394;-59
2023/01/09 01:54:08;;;;;;;6.07;1.75;;;7.10;99.90;;;;;;5068428;28;20075;-59
2023/01/09 01:56:45;;;;;;;4.78;1.92;;;7.00;99.90;;;;;;5094541;28;20460;-61
2023/01/09 01:59:23;;;;;;;6.60;2.20;;;7.00;99.90;;;;;;5097311;28;20036;-61
2023/01/09 02:01:52;;;;;;;5.40;1.90;;;6.90;99.90;;;;;;5096612;28;20051;-58
2023/01/09 02:04:18;;;;;;;6.72;1.80;;;7.00;99.90;;;;;;5105872;28;20027;-59
2023/01/09 02:06:45;;;;;;;3.58;1.80;;;6.90;99.90;;;;;;5096895;28;20109;-60
2023/01/09 02:09:16;;;;;;;6.13;2.20;;;6.90;99.90;;;;;;5092427;28;20036;-58
2023/01/09 02:11:47;;;;;;;5.85;1.90;;;6.80;99.90;;;;;;5088161;28;20098;-59
2023/01/09 02:14:15;;;;;;;4.88;2.00;;;6.80;99.90;;;;;;5091586;28;20104;-62
2023/01/09 02:16:58;;;;;;;6.00;2.45;;;6.70;99.90;;;;;;5100271;28;20046;-57
2023/01/09 02:19:42;;;;;;;6.40;2.30;;;6.70;99.90;;;;;;5088673;28;20047;-59
2023/01/09 02:22:38;;;;;;;6.32;2.10;;;6.60;99.90;;;;;;5098730;28;20036;-59
2023/01/09 02:25:40;;;;;;;3.50;1.85;;;6.50;99.90;;;;;;5088258;28;20062;-59
2023/01/09 02:28:06;;;;;;;5.15;2.50;;;6.50;99.90;;;;;;5071995;28;20059;-57
2023/01/09 02:31:24;;;;;;;7.22;2.38;;;6.40;99.90;;;;;;5089842;28;20032;-55
2023/01/09 02:34:13;;;;;;;3.90;2.10;;;6.40;99.90;;;;;;5058884;28;20118;-60
2023/01/09 02:36:57;;;;;;;4.50;2.40;;;6.30;99.90;;;;;;5085768;28;20083;-61
2023/01/09 02:39:32;;;;;;;5.20;2.50;;;6.40;99.90;;;;;;5093870;28;20035;-59
2023/01/09 02:42:06;;;;;;;6.65;2.50;;;6.40;99.90;;;;;;5095680;28;20086;-55
2023/01/09 02:44:35;;;;;;;6.82;2.53;;;6.40;99.90;;;;;;5089884;28;20111;-56
2023/01/09 02:47:16;;;;;;;5.68;2.42;;;6.30;99.90;;;;;;5087885;28;20373;-59
2023/01/09 02:49:47;;;;;;;4.90;2.28;;;6.30;99.90;;;;;;5096896;28;20456;-58
2023/01/09 02:52:40;;;;;;;6.00;2.67;;;6.20;99.90;;;;;;5102111;28;20475;-55
2023/01/09 02:55:28;;;;;;;6.25;2.67;;;6.10;99.90;;;;;;5089646;28;20039;-59
2023/01/09 02:58:17;;;;;;;5.05;2.58;;;6.10;99.90;;;;;;5087783;28;20419;-58
2023/01/09 03:00:55;;;;;;;4.90;2.25;;;6.10;99.90;;;;;;5054569;28;20051;-60
2023/01/09 03:03:36;;;;;;;6.60;2.42;;;6.10;99.90;;;;;;5086798;28;20111;-59
2023/01/09 03:06:09;;;;;;;4.13;2.45;;;6.00;99.90;;;;;;5088845;28;20114;-57
2023/01/09 03:08:41;;;;;;;5.75;2.55;;;5.90;99.90;;;;;;5091630;28;20071;-59
2023/01/09 03:11:07;;;;;;;5.40;2.70;;;5.90;99.90;;;;;;5092944;28;20357;-59
2023/01/09 03:13:57;;;;;;;7.22;2.83;;;5.80;99.90;;;;;;5086193;28;20044;-57
2023/01/09 03:16:28;;;;;;;6.47;1.92;;;5.80;99.90;;;;;;5095816;28;20032;-59
2023/01/09 03:18:56;;;;;;;5.32;2.70;;;5.80;99.90;;;;;;5103034;28;20035;-57
2023/01/09 03:21:22;;;;;;;6.53;2.80;;;5.70;99.90;;;;;;5086035;28;20043;-59
2023/01/09 03:23:55;;;;;;;7.47;3.10;;;5.80;99.90;;;;;;5090509;28;20044;-56
2023/01/09 03:26:21;;;;;;;5.78;2.70;;;5.80;99.90;;;;;;5086908;28;20051;-61
2023/01/09 03:28:48;;;;;;;4.82;2.85;;;5.70;99.90;;;;;;5072643;28;20094;-61
2023/01/09 03:31:16;;;;;;;5.60;3.20;;;5.60;99.90;;;;;;5100397;28;20376;-59
2023/01/09 03:33:42;;;;;;;5.55;3.15;;;5.60;99.90;;;;;;5066820;28;20117;-60
2023/01/09 03:36:10;;;;;;;7.10;3.53;;;5.70;99.90;;;;;;5084074;28;20357;-58
2023/01/09 03:38:36;;;;;;;8.85;3.75;;;5.60;99.90;;;;;;5099691;28;20469;-60
2023/01/09 03:41:02;;;;;;;9.20;3.90;;;5.70;99.90;;;;;;5097997;28;20094;-61
2023/01/09 03:43:28;;;;;;;8.43;4.18;;;5.70;99.90;;;;;;5086674;28;20028;-61
2023/01/09 03:45:54;;;;;;;8.75;4.70;;;5.60;99.90;;;;;;5090013;28;20028;-59
2023/01/09 03:48:21;;;;;;;7.75;4.28;;;5.60;99.90;;;;;;5081366;28;20466;-59
2023/01/09 03:50:52;;;;;;;7.20;4.80;;;5.60;99.90;;;;;;5103042;28;20062;-59
2023/01/09 03:53:19;;;;;;;8.00;5.13;;;5.60;99.90;;;;;;5082207;28;20043;-58
2023/01/09 03:55:50;;;;;;;8.57;5.72;;;5.50;99.90;;;;;;5084426;28;20436;-56
2023/01/09 03:58:17;;;;;;;12.40;5.80;;;5.50;99.90;;;;;;5096258;28;20027;-59
2023/01/09 04:00:51;;;;;;;8.00;6.35;;;5.40;99.90;;;;;;5097153;28;20036;-59
2023/01/09 04:03:19;;;;;;;9.67;6.53;;;5.60;99.90;;;;;;5100607;28;20116;-59
2023/01/09 04:05:46;;;;;;;10.93;7.47;;;5.50;99.90;;;;;;5091937;28;20387;-60
2023/01/09 04:08:12;;;;;;;8.63;7.15;;;5.50;99.90;;;;;;5100819;28;20144;-58
2023/01/09 04:10:38;;;;;;;12.23;8.02;;;5.40;99.90;;;;;;5096259;28;20126;-59
2023/01/09 04:13:03;;;;;;;11.98;7.88;;;5.50;99.90;;;;;;5083658;28;20118;-58
2023/01/09 04:15:29;;;;;;;12.13;7.95;;;5.40;99.90;;;;;;5094900;28;20044;-60
2023/01/09 04:17:55;;;;;;;11.25;5.82;;;5.30;99.90;;;;;;5098911;28;20077;-59
2023/01/09 04:20:20;;;;;;;11.40;8.95;;;5.30;99.90;;;;;;5089291;28;20047;-56
2023/01/09 04:22:46;;;;;;;11.57;9.15;;;5.20;99.90;;;;;;5082891;28;20095;-57
2023/01/09 04:25:11;;;;;;;13.75;9.73;;;5.30;99.90;;;;;;5084847;28;20456;-60
2023/01/09 04:27:37;;;;;;;11.65;9.45;;;5.20;99.90;;;;;;5094361;28;20023;-59
2023/01/09 04:30:03;;;;;;;13.15;9.73;;;5.20;99.90;;;;;;5086910;28;20032;-60
2023/01/09 04:32:29;;;;;;;11.32;9.27;;;5.20;99.90;;;;;;5090210;28;20187;-60
2023/01/09 04:34:55;;;;;;;10.73;5.90;;;5.20;99.90;;;;;;5090243;28;20544;-59
2023/01/09 04:37:23;;;;;;;12.77;9.70;;;5.20;99.90;;;;;;5084644;28;20338;-59
2023/01/09 04:39:50;;;;;;;15.05;9.88;;;5.20;99.90;;;;;;5087860;28;20071;-58
2023/01/09 04:42:15;;;;;;;13.23;10.10;;;5.10;99.90;;;;;;5089267;28;20090;-58
2023/01/09 04:44:41;;;;;;;11.52;9.90;;;5.10;99.90;;;;;;5092885;28;20388;-61
2023/01/09 04:47:06;;;;;;;13.73;10.15;;;5.20;99.90;;;;;;5084290;28;20032;-58
2023/01/09 04:49:32;;;;;;;13.70;8.55;;;5.10;99.90;;;;;;5089265;28;20040;-56
2023/01/09 04:51:58;;;;;;;12.68;9.65;;;5.10;99.90;;;;;;5087452;28;20519;-56
2023/01/09 04:54:26;;;;;;;13.27;9.13;;;5.10;99.90;;;;;;5094823;28;20090;-58
2023/01/09 04:56:52;;;;;;;16.02;9.30;;;5.10;99.90;;;;;;5097165;28;20039;-57
2023/01/09 04:59:18;;;;;;;12.85;9.43;;;5.10;99.90;;;;;;5083127;28;20530;-58
2023/01/09 05:01:44;;;;;;;15.15;9.18;;;5.10;99.90;;;;;;5099133;28;20119;-58
2023/01/09 05:04:10;;;;;;;15.40;9.52;;;5.00;99.90;;;;;;5095999;28;20349;-59
2023/01/09 05:06:38;;;;;;;14.82;9.00;;;5.10;99.90;;;;;;5092855;28;20426;-61
2023/01/09 05:09:04;;;;;;;16.05;10.05;;;5.00;99.90;;;;;;5093970;28;20344;-59
2023/01/09 05:11:30;;;;;;;14.65;10.02;;;5.10;99.90;;;;;;5096444;28;20032;-59
2023/01/09 05:13:55;;;;;;;13.93;10.13;;;5.00;99.90;;;;;;5087215;28;20040;-58
2023/01/09 05:16:21;;;;;;;12.85;7.25;;;5.00;99.90;;;;;;5086864;28;20033;-59
2023/01/09 05:18:47;;;;;;;14.05;11.43;;;5.00;99.90;;;;;;5090928;28;20119;-59
2023/01/09 05:21:13;;;;;;;13.93;11.40;;;4.90;99.90;;;;;;5086574;28;20792;-60
2023/01/09 05:23:38;;;;;;;15.13;12.70;;;4.90;99.90;;;;;;5079072;28;20047;-60
2023/01/09 05:26:04;;;;;;;13.68;11.57;;;4.90;99.90;;;;;;5094030;28;20166;-56
2023/01/09 05:28:31;;;;;;;13.70;12.25;;;4.80;99.90;;;;;;5086447;28;20044;-60
2023/01/09 05:30:56;;;;;;;13.95;12.13;;;4.90;99.90;;;;;;5087672;28;20504;-59
2023/01/09 05:33:22;;;;;;;13.68;11.48;;;4.90;99.90;;;;;;5093202;28;20126;-58
2023/01/09 05:35:48;;;;;;;12.23;7.90;;;4.80;99.90;;;;;;5085909;28;20766;-57
2023/01/09 05:38:14;;;;;;;17.02;11.95;;;4.90;99.90;;;;;;5095021;28;20051;-58
2023/01/09 05:40:39;;;;;;;14.80;11.60;;;4.80;99.90;;;;;;5089745;28;20042;-56
2023/01/09 05:43:05;;;;;;;14.20;11.40;;;4.80;99.90;;;;;;5069365;28;20103;-58
2023/01/09 05:45:31;;;;;;;15.15;11.27;;;4.80;99.90;;;;;;5094847;28;20071;-60
2023/01/09 05:47:59;;;;;;;12.38;11.05;;;4.70;99.90;;;;;;5086320;28;20040;-60
2023/01/09 05:50:24;;;;;;;12.40;10.77;;;4.80;99.90;;;;;;5075710;28;20051;-56
2023/01/09 05:52:50;;;;;;;11.50;7.25;;;4.70;99.90;;;;;;5092899;28;20032;-58
2023/01/09 05:55:16;;;;;;;15.07;11.07;;;4.70;99.90;;;;;;5096995;28;20032;-57
2023/01/09 05:57:42;;;;;;;13.88;10.73;;;4.70;99.90;;;;;;5103912;28;20035;-58
2023/01/09 06:00:08;;;;;;;14.05;10.60;;;4.80;99.90;;;;;;5090981;28;20570;-60
2023/01/09 06:02:34;;;;;;;13.52;10.30;;;4.80;99.90;;;;;;5093260;28;20068;-60
2023/01/09 06:04:59;;;;;;;11.18;6.55;;;4.80;99.90;;;;;;5094548;28;20144;-60
2023/01/09 06:07:25;;;;;;;13.82;10.15;;;4.60;99.90;;;;;;5094457;28;20420;-57
2023/01/09 06:09:50;;;;;;;9.18;6.40;;;4.60;99.90;;;;;;5094056;28;20036;-56
2023/01/09 06:12:21;;;;;;;14.90;9.60;;;4.60;99.90;;;;;;5097534;28;20037;-54
2023/01/09 06:14:46;;;;;;;12.88;6.47;;;4.70;99.90;;;;;;5093696;28;20051;-57
2023/01/09 06:17:12;;;;;;;11.93;9.75;;;4.60;99.90;;;;;;5088547;28;20032;-58
2023/01/09 06:19:37;;;;;;;16.50;10.27;;;4.70;99.90;;;;;;5096444;28;20036;-59
2023/01/09 06:22:03;;;;;;;13.63;9.68;;;4.60;99.90;;;;;;5096001;28;20032;-58
2023/01/09 06:24:29;;;;;;;13.20;9.55;;;4.60;99.90;;;;;;5092120;28;20032;-60
2023/01/09 06:26:54;;;;;;;13.50;8.68;;;4.70;99.90;;;;;;5104067;28;20035;-57
2023/01/09 06:29:26;;;;;;;13.25;9.15;;;4.60;99.90;;;;;;5089814;28;20043;-58
2023/01/09 06:31:52;;;;;;;11.70;5.88;;;4.80;99.90;;;;;;5096266;28;20074;-59
2023/01/09 06:34:17;;;;;;;15.68;8.07;;;4.80;99.90;;;;;;5101344;28;20440;-55
2023/01/09 06:36:43;;;;;;;9.50;7.60;;;5.00;99.90;;;;;;5097672;28;20052;-57
2023/01/09 06:39:08;;;;;;;10.30;4.65;;;4.90;99.90;;;;;;5080370;28;20098;-58
2023/01/09 06:41:34;;;;;;;11.73;7.15;;;4.90;99.90;;;;;;5089238;28;20072;-58
2023/01/09 06:43:59;;;;;;;9.55;6.65;;;5.10;99.90;;;;;;5091960;28;20040;-59
2023/01/09 06:46:33;;;;;;;10.68;7.00;;;5.10;99.90;;;;;;5089137;28;20437;-57
2023/01/09 06:48:59;;;;;;;8.45;3.88;;;5.10;99.90;;;;;;5070789;28;20510;-59
2023/01/09 06:51:30;;;;;;;10.15;5.90;;;5.10;99.90;;;;;;5095791;28;20039;-56
2023/01/09 06:53:56;;;;;;;9.60;5.50;;;5.20;99.90;;;;;;5070097;28;20031;-56
2023/01/09 06:56:22;;;;;;;10.63;5.60;;;5.30;99.90;;;;;;5095879;28;20032;-57
2023/01/09 06:58:47;;;;;;;11.05;5.35;;;5.30;99.90;;;;;;5094668;28;20471;-56
2023/01/09 07:01:13;;;;;;;9.85;5.28;;;5.40;99.90;;;;;;5074272;28;20131;-59
2023/01/09 07:03:39;;;;;;;9.60;5.63;;;5.40;99.90;;;;;;5055502;28;20035;-57
2023/01/09 07:06:05;;;;;;;9.32;3.65;;;5.40;99.90;;;;;;5054187;28;20036;-58
2023/01/09 07:08:31;;;;;;;12.35;5.30;;;5.40;99.90;;;;;;5092788;28;20077;-60
2023/01/09 07:10:56;;;;;;;8.73;4.68;;;5.50;99.90;;;;;;5073176;28;20460;-58
2023/01/09 07:13:22;;;;;;;9.07;5.03;;;5.60;99.90;;;;;;5092176;28;20032;-59
2023/01/09 07:15:48;;;;;;;9.15;5.40;;;5.50;99.90;;;;;;5089841;28;20483;-58
2023/01/09 07:18:15;;;;;;;9.73;5.10;;;5.60;99.90;;;;;;5085979;28;20417;-56
2023/01/09 07:20:41;;;;;;;7.00;4.60;;;5.60;99.90;;;;;;5093273;28;20100;-59
2023/01/09 07:23:12;;;;;;;10.15;5.18;;;5.70;99.90;;;;;;5095387;28;20036;-57
2023/01/09 07:25:39;;;;;;;9.88;5.25;;;5.60;99.90;;;;;;5093117;28;20497;-59
2023/01/09 07:28:06;;;;;;;10.65;4.97;;;5.70;99.90;;;;;;5090440;28;20032;-56
2023/01/09 07:30:32;;;;;;;9.52;5.13;;;5.60;99.90;;;;;;5092176;28;20064;-57
2023/01/09 07:32:58;;;;;;;10.68;5.72;;;5.70;99.90;;;;;;5089305;28;20076;-57
2023/01/09 07:35:23;;;;;;;10.20;5.38;;;5.80;99.90;;;;;;5085108;28;20487;-58
2023/01/09 07:37:50;;;;;;;9.00;4.97;;;5.70;99.90;;;;;;5082592;28;20044;-58
2023/01/09 07:40:16;;;;;;;13.82;4.70;;;5.80;99.90;;;;;;5084335;28;20050;-57
2023/01/09 07:42:41;;;;;;;8.25;3.67;;;5.70;99.90;;;;;;5080404;28;20033;-57
2023/01/09 07:45:08;;;;;;;12.52;5.88;;;5.80;99.90;;;;;;5083892;28;20341;-58
2023/01/09 07:47:33;;;;;;;10.73;5.15;;;5.80;99.90;;;;;;5081756;28;20040;-59
2023/01/09 07:49:59;;;;;;;9.60;4.90;;;5.80;99.90;;;;;;5082691;28;20044;-58
2023/01/09 07:52:26;;;;;;;10.50;4.90;;;5.80;99.90;;;;;;5080118;28;20039;-56
2023/01/09 07:54:52;;;;;;;11.77;4.65;;;5.80;99.90;;;;;;5083135;28;20047;-58
2023/01/09 07:57:17;;;;;;;9.25;5.05;;;5.80;99.90;;;;;;5083135;28;20032;-59
2023/01/09 07:59:43;;;;;;;12.00;4.68;;;5.90;99.90;;;;;;5081854;28;20032;-58
2023/01/09 08:02:09;;;;;;;8.75;4.20;;;5.90;99.90;;;;;;5081186;28;20040;-58
2023/01/09 08:04:34;;;;;;;12.88;4.65;;;6.00;99.90;;;;;;5083429;28;20382;-59
2023/01/09 08:07:02;;;;;;;10.20;4.55;;;5.90;99.90;;;;;;5080917;28;20028;-59
2023/01/09 08:09:27;;;;;;;8.48;4.32;;;5.90;99.90;;;;;;5084682;28;20454;-57
2023/01/09 08:11:53;;;;;;;9.77;4.22;;;5.90;99.90;;;;;;5082483;28;20048;-59
2023/01/09 08:14:18;;;;;;;11.07;4.82;;;5.90;99.90;;;;;;5080573;28;20037;-59
2023/01/09 08:16:44;;;;;;;9.15;4.53;;;6.00;99.90;;;;;;5081115;28;20040;-59
2023/01/09 08:19:11;;;;;;;9.25;4.32;;;6.10;99.90;;;;;;5084744;28;20111;-59
2023/01/09 08:21:38;;;;;;;15.10;4.25;;;6.10;99.90;;;;;;5085892;28;20044;-57
2023/01/09 08:24:04;;;;;;;11.00;4.72;;;6.00;99.90;;;;;;5091955;28;20059;-58
2023/01/09 08:26:30;;;;;;;11.13;4.53;;;6.00;99.90;;;;;;5085173;28;20056;-59
2023/01/09 08:28:55;;;;;;;11.50;4.53;;;6.10;99.90;;;;;;5080846;28;20040;-58
2023/01/09 08:31:21;;;;;;;8.23;4.22;;;6.00;99.90;;;;;;5080623;28;20045;-59
2023/01/09 08:33:47;;;;;;;8.80;4.47;;;6.00;99.90;;;;;;5079187;28;20036;-59
2023/01/09 08:36:12;;;;;;;10.20;4.13;;;6.10;99.90;;;;;;5082498;28;20040;-54
2023/01/09 08:38:38;;;;;;;9.13;4.32;;;6.00;99.90;;;;;;5077867;28;20054;-56
2023/01/09 08:47:04;;;;;;;9.48;4.18;;;6.20;99.90;;;;;;5079783;28;20448;-57
2023/01/09 08:49:18;;;;;;;9.77;4.28;;;6.10;99.90;;;;;;5078426;28;20063;-54
2023/01/09 08:51:43;;;;;;;8.65;3.40;;;6.10;99.90;;;;;;5081480;28;20528;-54
2023/01/09 08:54:09;;;;;;;9.57;3.97;;;6.20;99.90;;;;;;5081616;28;20120;-57
2023/01/09 08:56:34;;;;;;;9.45;3.90;;;6.20;99.90;;;;;;5080279;28;20040;-58
2023/01/09 08:59:00;;;;;;;8.02;3.28;;;6.20;99.90;;;;;;5077487;28;20040;-57
2023/01/09 09:01:25;;;;;;;11.77;4.63;;;6.40;99.90;;;;;;5082059;28;20044;-58
2023/01/09 09:03:52;;;;;;;7.43;3.40;;;6.40;99.90;;;;;;5080144;28;20113;-57
2023/01/09 09:06:18;;;;;;;9.57;3.90;;;6.30;99.90;;;;;;5063803;28;20437;-58
2023/01/09 09:08:43;;;;;;;8.35;3.55;;;6.40;99.90;;;;;;5080561;28;20061;-56
2023/01/09 09:11:09;;;;;;;9.40;3.65;;;6.40;99.90;;;;;;5076581;28;20433;-58
2023/01/09 09:13:34;;;;;;;9.43;3.63;;;6.30;99.90;;;;;;5079970;28;20178;-56
2023/01/09 09:16:00;;;;;;;10.30;3.50;;;6.30;99.90;;;;;;5080786;28;20036;-57
2023/01/09 09:18:25;;;;;;;9.50;3.95;;;6.40;99.90;;;;;;5080618;28;20051;-57
2023/01/09 09:20:51;;;;;;;7.68;3.40;;;6.40;99.90;;;;;;5076817;28;20472;-56
2023/01/09 09:23:16;;;;;;;7.38;3.55;;;6.40;99.90;;;;;;5077862;28;20475;-58
2023/01/09 09:25:42;;;;;;;7.93;3.70;;;6.40;99.90;;;;;;5082372;28;20448;-60
2023/01/09 09:28:10;;;;;;;8.77;3.70;;;6.60;99.90;;;;;;5078454;28;20032;-59
2023/01/09 09:30:37;;;;;;;8.20;3.45;;;6.50;99.90;;;;;;5079846;28;20100;-58
2023/01/09 09:33:03;;;;;;;8.73;3.45;;;6.50;99.90;;;;;;5070621;28;20045;-59
2023/01/09 09:35:36;;;;;;;9.73;4.38;;;6.50;99.90;;;;;;5072399;28;20036;-59
2023/01/09 09:38:03;;;;;;;7.40;3.33;;;6.60;99.90;;;;;;5068213;28;20047;-58
2023/01/09 09:41:06;;;;;;;10.18;4.10;;;6.50;99.90;;;;;;5067303;28;20037;-59
2023/01/09 09:47:02;;;;;;;8.88;3.15;;;6.50;99.90;;;;;;5068525;28;20055;-58
2023/01/09 09:49:49;;;;;;;10.00;3.60;;;6.60;99.90;;;;;;5067040;28;20072;-59
2023/01/09 09:52:30;;;;;;;8.70;3.58;;;6.60;99.90;;;;;;5068834;28;20466;-58
2023/01/09 09:54:59;;;;;;;8.70;3.70;;;6.60;99.90;;;;;;5069596;28;20076;-60
2023/01/09 09:57:31;;;;;;;7.00;3.22;;;6.60;99.90;;;;;;5068943;28;20032;-57
2023/01/09 09:59:57;;;;;;;10.45;3.85;;;6.70;99.90;;;;;;5071905;28;20036;-55
2023/01/09 10:02:27;;;;;;;10.95;4.20;;;6.60;99.90;;;;;;5068565;28;20039;-58
2023/01/09 10:05:00;;;;;;;8.82;3.55;;;6.70;99.90;;;;;;5069540;28;20365;-58
2023/01/09 10:07:41;;;;;;;8.20;3.97;;;6.70;99.90;;;;;;5067757;28;20048;-55
2023/01/09 10:10:14;;;;;;;9.77;4.43;;;6.70;99.90;;;;;;5062951;28;20124;-54
2023/01/09 10:12:57;;;;;;;12.73;5.18;;;6.80;99.90;;;;;;5065509;28;20045;-59
2023/01/09 10:15:44;;;;;;;8.55;3.70;;;6.80;99.90;;;;;;5068160;28;20131;-54
2023/01/09 10:18:10;;;;;;;9.05;3.83;;;6.80;99.90;;;;;;5065451;28;20040;-59
2023/01/09 10:20:45;;;;;;;8.57;3.90;;;6.90;99.90;;;;;;5068170;28;20055;-59
2023/01/09 10:23:22;;;;;;;8.35;3.85;;;6.90;99.90;;;;;;5069289;28;20173;-58
2023/01/09 10:26:13;;;;;;;8.38;3.90;;;6.90;99.90;;;;;;5067419;28;20043;-55
2023/01/09 10:28:57;;;;;;;10.05;4.45;;;6.90;99.90;;;;;;5046793;28;20058;-59
2023/01/09 10:31:42;;;;;;;9.47;4.80;;;6.90;99.90;;;;;;5067919;28;20118;-58
2023/01/09 10:34:47;;;;;;;10.10;4.85;;;6.80;99.90;;;;;;5070060;28;20271;-55
2023/01/09 10:37:28;;;;;;;8.20;4.85;;;6.90;99.90;;;;;;5067610;28;20465;-57
2023/01/09 10:39:59;;;;;;;6.80;4.72;;;7.00;99.90;;;;;;5069941;28;20050;-57
2023/01/09 10:42:36;;;;;;;11.75;5.07;;;7.00;99.90;;;;;;5070160;28;20440;-56
2023/01/09 10:45:09;;;;;;;9.35;4.82;;;7.00;99.90;;;;;;5066077;28;20036;-58
2023/01/09 10:47:38;;;;;;;8.27;5.25;;;7.10;99.90;;;;;;5069813;28;20032;-57
2023/01/09 10:50:25;;;;;;;10.10;5.88;;;7.00;99.90;;;;;;5065807;28;20032;-58
2023/01/09 10:52:54;;;;;;;9.05;5.70;;;7.00;99.90;;;;;;5069199;28;20043;-57
2023/01/09 10:55:38;;;;;;;10.63;6.30;;;7.10;99.90;;;;;;5064175;28;20126;-59
2023/01/09 10:58:13;;;;;;;11.43;6.22;;;7.10;99.90;;;;;;5068096;28;20095;-55
2023/01/09 11:00:40;;;;;;;10.88;6.30;;;7.10;99.90;;;;;;5064765;28;20091;-56
2023/01/09 11:03:14;;;;;;;11.75;7.35;;;7.10;99.90;;;;;;5068139;28;20036;-57
2023/01/09 11:05:40;;;;;;;12.55;7.43;;;7.10;99.90;;;;;;5049352;28;20025;-55
2023/01/09 11:08:30;;;;;;;21.45;11.25;;;7.10;99.90;;;;;;5066311;28;20040;-57
2023/01/09 11:10:58;;;;;;;17.00;10.55;;;7.10;99.90;;;;;;5065757;28;20110;-58
2023/01/09 11:13:32;;;;;;;20.25;12.20;;;7.20;99.90;;;;;;5069351;28;20381;-54
2023/01/09 11:15:59;;;;;;;18.30;12.70;;;7.30;99.90;;;;;;5070186;28;20174;-59
2023/01/09 11:18:25;;;;;;;14.15;9.75;;;7.20;99.90;;;;;;5066401;28;20037;-58
2023/01/09 11:20:51;;;;;;;18.13;11.52;;;7.20;99.90;;;;;;5054680;28;20047;-58
2023/01/09 11:23:25;;;;;;;16.50;10.93;;;7.30;99.90;;;;;;5067125;28;20036;-59
2023/01/09 11:25:52;;;;;;;16.90;11.03;;;7.30;99.90;;;;;;5067647;28;20349;-54
2023/01/09 11:28:18;;;;;;;19.58;12.00;;;7.30;99.90;;;;;;5066306;28;20434;-59
2023/01/09 11:30:51;;;;;;;15.73;11.40;;;7.40;99.90;;;;;;5066279;28;20028;-57
2023/01/09 11:33:23;;;;;;;16.98;10.63;;;7.30;99.90;;;;;;5083718;28;20056;-58
2023/01/09 11:36:13;;;;;;;17.08;11.77;;;7.40;99.90;;;;;;5092532;28;20036;-59
2023/01/09 11:39:15;;;;;;;16.35;10.70;;;7.40;99.90;;;;;;5087814;28;20069;-58
2023/01/09 11:41:41;;;;;;;14.32;11.15;;;7.50;99.90;;;;;;5088568;28;20036;-55
2023/01/09 11:44:12;;;;;;;18.40;13.20;;;7.50;99.90;;;;;;5098570;28;20046;-57
2023/01/09 11:46:41;;;;;;;16.08;12.48;;;7.60;99.90;;;;;;5087218;28;20478;-59
2023/01/09 11:49:23;;;;;;;20.52;13.20;;;7.60;99.90;;;;;;5098177;28;20043;-57
2023/01/09 11:52:16;;;;;;;20.73;13.52;;;7.80;99.90;;;;;;5086731;28;20113;-57
2023/01/09 11:54:54;;;;;;;17.45;12.05;;;7.80;99.90;;;;;;5080438;28;20074;-57
2023/01/09 11:57:21;;;;;;;21.17;13.70;;;7.70;99.90;;;;;;5086905;28;20041;-59
2023/01/09 11:59:47;;;;;;;21.88;15.35;;;7.80;99.90;;;;;;5093351;28;20149;-57
2023/01/09 12:02:40;;;;;;;20.90;14.93;;;7.90;99.90;;;;;;5093951;28;20055;-57
2023/01/09 12:05:39;;;;;;;22.90;16.85;;;7.80;99.90;;;;;;5090962;28;20126;-58
2023/01/09 12:08:37;;;;;;;22.27;17.13;;;8.00;99.90;;;;;;5085156;28;20045;-57
2023/01/09 12:11:26;;;;;;;25.77;19.60;;;8.00;99.90;;;;;;5090256;28;20119;-53
2023/01/09 12:14:34;;;;;;;22.75;18.50;;;7.90;99.90;;;;;;5090957;28;20174;-56
2023/01/09 12:17:11;;;;;;;22.27;15.68;;;8.00;99.90;;;;;;5066893;28;20371;-59
2023/01/09 12:19:42;;;;;;;17.08;12.50;;;8.10;99.90;;;;;;5091755;28;20040;-59
2023/01/09 12:22:20;;;;;;;19.00;12.55;;;8.10;99.90;;;;;;5092668;28;20080;-58
2023/01/09 12:25:05;;;;;;;16.67;10.43;;;8.10;99.90;;;;;;5092703;28;20036;-57
2023/01/09 12:27:34;;;;;;;13.10;9.48;;;8.00;99.90;;;;;;5091062;28;20440;-58
2023/01/09 12:30:09;;;;;;;16.30;9.32;;;8.00;99.90;;;;;;5091774;28;20051;-61
2023/01/09 12:33:04;;;;;;;17.20;11.07;;;8.00;99.90;;;;;;5085241;28;20055;-57
2023/01/09 12:35:49;;;;;;;14.32;9.95;;;7.90;99.90;;;;;;5054899;28;20135;-59
2023/01/09 12:38:30;;;;;;;17.80;12.43;;;7.90;99.90;;;;;;5073096;28;20084;-58
2023/01/09 12:41:10;;;;;;;18.50;12.52;;;7.90;99.90;;;;;;5051315;28;20048;-57
2023/01/09 12:44:07;;;;;;;17.65;11.18;;;8.00;99.90;;;;;;5063891;28;20059;-58
2023/01/09 12:46:51;;;;;;;15.73;9.32;;;7.90;99.90;;;;;;5072101;28;20041;-55
2023/01/09 12:49:36;;;;;;;18.77;12.40;;;8.00;99.90;;;;;;5063651;28;20047;-58
2023/01/09 12:52:23;;;;;;;16.35;9.40;;;7.90;99.90;;;;;;5060833;28;20044;-57
2023/01/09 12:54:55;;;;;;;14.18;6.60;;;8.00;99.90;;;;;;5073102;28;20360;-57
2023/01/09 12:57:37;;;;;;;14.98;7.10;;;7.90;99.90;;;;;;5067814;28;20464;-57
2023/01/09 13:00:28;;;;;;;19.38;12.18;;;8.00;99.90;;;;;;5065378;28;20453;-58
2023/01/09 13:03:17;;;;;;;12.73;5.80;;;8.00;99.90;;;;;;5069274;28;20028;-55
2023/01/09 13:05:52;;;;;;;13.65;6.88;;;8.10;99.90;;;;;;5084012;28;20033;-60
2023/01/09 13:08:20;;;;;;;14.30;6.30;;;8.10;99.90;;;;;;5087318;28;20032;-58
2023/01/09 13:10:52;;;;;;;18.50;5.50;;;8.10;99.90;;;;;;5086190;28;20419;-59
2023/01/09 13:13:28;;;;;;;15.80;4.70;;;8.20;99.90;;;;;;5088546;28;20070;-59
2023/01/09 13:16:00;;;;;;;14.10;5.00;;;8.20;99.90;;;;;;5091917;28;20051;-60
2023/01/09 13:18:39;;;;;;;14.98;4.40;;;8.30;99.90;;;;;;5080409;28;20108;-59
2023/01/09 13:21:06;;;;;;;13.30;3.92;;;8.30;99.90;;;;;;5071482;28;20123;-54
2023/01/09 13:23:57;;;;;;;16.27;4.65;;;8.40;99.90;;;;;;5070283;28;20036;-58
2023/01/09 13:26:34;;;;;;;11.85;4.38;;;8.40;99.90;;;;;;5069849;28;20064;-56